Kendallville, Iowa
Current Conditions -  °F | °C
As of 2:55 PM on Thursday 20 Nov 2014 (Local Time) from KFKA Reporting Station
Clear Clear  
Wind Chill: -18°   Ceiling: Unl
Heat Index: -9°   Visibility: 10mi
Dew Point: -15°   Wind: 18mph
Humidity: 62%   Direction: 290°WNW
Pressure: 30.13"   Gusts: NA
Location:  43.363°N, 92.1685°W
Report Text: KFKA 202055Z AUTO 29016KT 10SM CLR M09/M15 A3013 RMK AO2 T10901150
Loading
Personal Weather Stations






























Interactive Weather Map New forecast layout! Learn more

10-Day Weather Forecast

Advertisements
Track Severe Weather on mobile